Hood Army Air Field
KHLR : now visible

Airfield :











YOU CAN JOIN US ON...

 
LOGIN :

Register | Disclaimer

   EN    FR    IT 

 









Legend :    VFR   Marginal VFR   IFR   Intensive IFR   Very Intensive IFR
Visi :
Ceiling :
>= 8 km
>= 3000ft
5 to 8 km
1000 to 3000 ft
1500m to 5 km
500 to 1000 ft
800 to 1500m
200 to 500 ft
< 800m
< 200 ft
Symbols :   Thunderstorms  Fog  Heavy snow  Heavy precipitations  Wind > 20 kt






- Airport Elevation : 924 ft


KHLR - Hood Army Air Field

CURRENT METAR :
  • 241058Z AUTO 35011KT 10SM OVC032 09/04 A3019 RMK AO2 SLP223 T00920043

EXPIRED METARs :
  • 240958Z AUTO 36012KT 10SM OVC033 09/04 A3019 RMK AO2 SLP223 T00940042
  • 240858Z AUTO 34014KT 10SM OVC034 10/05 A3019 RMK AO2 SLP222 T00970046 57006
  • 240818Z AUTO 35012KT 10SM BKN034 OVC070 10/05 A3020 RMK AO2 SLP226
  • 240808Z AUTO 35011KT 10SM SCT035 OVC070 10/05 A3021 RMK AO2 SLP228

TAF N/A
KZHU FIR / North America



MET'MAP, your aeronautical weather chart ! - Copyright ORBIFLY December 2007 - Disclaimer

ORBIFLY MET'MAP TEAM :

Programming & Development : Alexandra Zaïnal
Concept & original design : Baudouin d'Aumeries
Assistance for programming : Marc-Olivier Méhu
Technical & hardware support : Manuel Goepfert

Contact : metmap@orbifly.com




SOURCES & CREDITS :

   NOAA       Earth
Advisory